sensor_id;sensor_type;location;lat;lon;timestamp;pressure;altitude;pressure_sealevel;temperature;humidity
70968;BME280;58629;48.808;8.820;2023-03-01T00:01:51;97832.81;;;-2.91;86.63
70968;BME280;58629;48.808;8.820;2023-03-01T00:04:16;97840.88;;;-2.84;86.81
70968;BME280;58629;48.808;8.820;2023-03-01T00:06:42;97842.09;;;-2.90;86.86
70968;BME280;58629;48.808;8.820;2023-03-01T00:09:11;97841.47;;;-2.96;86.92
70968;BME280;58629;48.808;8.820;2023-03-01T00:11:37;97842.06;;;-2.99;86.93
70968;BME280;58629;48.808;8.820;2023-03-01T00:14:02;97845.25;;;-3.02;87.44
70968;BME280;58629;48.808;8.820;2023-03-01T00:16:32;97843.28;;;-2.96;87.08
70968;BME280;58629;48.808;8.820;2023-03-01T00:19:01;97851.97;;;-3.01;87.06
70968;BME280;58629;48.808;8.820;2023-03-01T00:21:27;97838.22;;;-3.10;88.18
70968;BME280;58629;48.808;8.820;2023-03-01T00:23:53;97839.59;;;-3.12;87.52
70968;BME280;58629;48.808;8.820;2023-03-01T00:26:20;97846.16;;;-3.06;88.10
70968;BME280;58629;48.808;8.820;2023-03-01T00:28:46;97839.47;;;-3.07;86.87
70968;BME280;58629;48.808;8.820;2023-03-01T00:31:16;97840.66;;;-3.05;87.41
70968;BME280;58629;48.808;8.820;2023-03-01T00:33:43;97839.78;;;-3.00;87.54
70968;BME280;58629;48.808;8.820;2023-03-01T00:36:10;97841.00;;;-2.98;87.73
70968;BME280;58629;48.808;8.820;2023-03-01T00:38:37;97839.94;;;-3.05;87.22
70968;BME280;58629;48.808;8.820;2023-03-01T00:41:04;97844.91;;;-3.17;87.58
70968;BME280;58629;48.808;8.820;2023-03-01T00:43:30;97848.22;;;-3.25;87.49
70968;BME280;58629;48.808;8.820;2023-03-01T00:45:55;97852.78;;;-3.31;88.43
70968;BME280;58629;48.808;8.820;2023-03-01T00:48:21;97835.84;;;-3.37;88.76
70968;BME280;58629;48.808;8.820;2023-03-01T00:50:46;97835.84;;;-3.37;88.80
70968;BME280;58629;48.808;8.820;2023-03-01T00:53:11;97839.78;;;-3.39;89.22
70968;BME280;58629;48.808;8.820;2023-03-01T00:55:37;97834.91;;;-3.41;89.19
70968;BME280;58629;48.808;8.820;2023-03-01T00:58:02;97837.50;;;-3.41;88.93
70968;BME280;58629;48.808;8.820;2023-03-01T01:00:28;97833.25;;;-3.37;89.53
70968;BME280;58629;48.808;8.820;2023-03-01T01:02:53;97827.00;;;-3.36;88.71
70968;BME280;58629;48.808;8.820;2023-03-01T01:05:18;97827.94;;;-3.32;88.06
70968;BME280;58629;48.808;8.820;2023-03-01T01:07:46;97834.78;;;-3.36;89.40
70968;BME280;58629;48.808;8.820;2023-03-01T01:10:11;97832.66;;;-3.34;88.75
70968;BME280;58629;48.808;8.820;2023-03-01T01:12:42;97830.53;;;-3.32;88.54
70968;BME280;58629;48.808;8.820;2023-03-01T01:15:08;97822.44;;;-3.39;88.54
70968;BME280;58629;48.808;8.820;2023-03-01T01:17:33;97823.78;;;-3.41;89.62
70968;BME280;58629;48.808;8.820;2023-03-01T01:19:58;97825.53;;;-3.59;89.46
70968;BME280;58629;48.808;8.820;2023-03-01T01:22:24;97826.97;;;-3.75;90.65
70968;BME280;58629;48.808;8.820;2023-03-01T01:24:49;97829.50;;;-3.84;91.47
70968;BME280;58629;48.808;8.820;2023-03-01T01:27:14;97826.16;;;-3.84;91.24
70968;BME280;58629;48.808;8.820;2023-03-01T01:29:39;97820.41;;;-3.81;91.69
70968;BME280;58629;48.808;8.820;2023-03-01T01:32:06;97819.78;;;-3.78;91.24
70968;BME280;58629;48.808;8.820;2023-03-01T01:34:32;97811.75;;;-3.77;91.10
70968;BME280;58629;48.808;8.820;2023-03-01T01:36:57;97819.06;;;-3.70;90.77
70968;BME280;58629;48.808;8.820;2023-03-01T01:39:22;97808.59;;;-3.65;90.94
70968;BME280;58629;48.808;8.820;2023-03-01T01:41:48;97803.44;;;-3.65;90.52
70968;BME280;58629;48.808;8.820;2023-03-01T01:46:57;97800.75;;;-3.82;91.00
70968;BME280;58629;48.808;8.820;2023-03-01T01:49:43;97805.66;;;-3.72;91.46
70968;BME280;58629;48.808;8.820;2023-03-01T01:57:08;97804.94;;;-3.95;90.63
70968;BME280;58629;48.808;8.820;2023-03-01T01:59:36;97793.97;;;-4.00;91.87
70968;BME280;58629;48.808;8.820;2023-03-01T02:02:03;97787.38;;;-4.06;91.35
70968;BME280;58629;48.808;8.820;2023-03-01T02:04:31;97786.31;;;-4.05;92.52
70968;BME280;58629;48.808;8.820;2023-03-01T02:07:01;97783.44;;;-4.04;92.39
70968;BME280;58629;48.808;8.820;2023-03-01T02:09:30;97783.44;;;-4.04;92.15
70968;BME280;58629;48.808;8.820;2023-03-01T02:11:55;97788.25;;;-4.11;92.76
70968;BME280;58629;48.808;8.820;2023-03-01T02:14:21;97787.66;;;-4.08;93.05
70968;BME280;58629;48.808;8.820;2023-03-01T02:16:47;97784.09;;;-3.98;92.81
70968;BME280;58629;48.808;8.820;2023-03-01T02:19:26;97777.84;;;-3.97;92.07
70968;BME280;58629;48.808;8.820;2023-03-01T02:22:03;97774.53;;;-3.89;91.78
70968;BME280;58629;48.808;8.820;2023-03-01T02:24:54;97777.72;;;-3.92;90.76
70968;BME280;58629;48.808;8.820;2023-03-01T02:27:25;97766.47;;;-3.88;90.86
70968;BME280;58629;48.808;8.820;2023-03-01T02:29:52;97758.25;;;-3.90;90.34
70968;BME280;58629;48.808;8.820;2023-03-01T02:32:18;97759.91;;;-3.94;90.07
70968;BME280;58629;48.808;8.820;2023-03-01T02:34:52;97751.03;;;-4.01;91.33
70968;BME280;58629;48.808;8.820;2023-03-01T02:37:18;97743.59;;;-4.03;92.12
70968;BME280;58629;48.808;8.820;2023-03-01T02:39:54;97741.31;;;-4.04;91.68
70968;BME280;58629;48.808;8.820;2023-03-01T02:42:26;97743.59;;;-4.03;92.07
70968;BME280;58629;48.808;8.820;2023-03-01T02:44:53;97745.09;;;-4.02;91.79
70968;BME280;58629;48.808;8.820;2023-03-01T02:47:19;97738.00;;;-3.96;92.26
70968;BME280;58629;48.808;8.820;2023-03-01T02:49:44;97735.56;;;-3.93;90.97
70968;BME280;58629;48.808;8.820;2023-03-01T02:55:11;97733.75;;;-3.92;91.02
70968;BME280;58629;48.808;8.820;2023-03-01T02:57:40;97733.00;;;-3.84;91.29
70968;BME280;58629;48.808;8.820;2023-03-01T03:00:16;97730.13;;;-3.83;91.10
70968;BME280;58629;48.808;8.820;2023-03-01T03:02:47;97734.72;;;-3.80;91.56
70968;BME280;58629;48.808;8.820;2023-03-01T03:05:19;97724.50;;;-3.76;91.55
70968;BME280;58629;48.808;8.820;2023-03-01T03:07:47;97734.13;;;-3.68;91.60
70968;BME280;58629;48.808;8.820;2023-03-01T03:10:15;97723.66;;;-3.63;91.04
70968;BME280;58629;48.808;8.820;2023-03-01T03:12:41;97722.31;;;-3.52;91.49
70968;BME280;58629;48.808;8.820;2023-03-01T03:15:09;97717.28;;;-3.48;91.38
70968;BME280;58629;48.808;8.820;2023-03-01T03:17:39;97717.47;;;-3.36;91.06
70968;BME280;58629;48.808;8.820;2023-03-01T03:20:06;97716.28;;;-3.39;91.39
70968;BME280;58629;48.808;8.820;2023-03-01T03:22:36;97717.31;;;-3.40;90.80
70968;BME280;58629;48.808;8.820;2023-03-01T03:25:01;97714.59;;;-3.43;91.69
70968;BME280;58629;48.808;8.820;2023-03-01T03:27:27;97708.06;;;-3.41;91.96
70968;BME280;58629;48.808;8.820;2023-03-01T03:29:52;97709.13;;;-3.33;93.55
70968;BME280;58629;48.808;8.820;2023-03-01T03:32:18;97704.56;;;-3.28;92.54
70968;BME280;58629;48.808;8.820;2023-03-01T03:34:43;97704.72;;;-3.33;93.88
70968;BME280;58629;48.808;8.820;2023-03-01T03:37:08;97708.50;;;-3.30;93.91
70968;BME280;58629;48.808;8.820;2023-03-01T03:39:53;97698.47;;;-3.23;94.68
70968;BME280;58629;48.808;8.820;2023-03-01T03:42:20;97696.66;;;-3.23;92.80
70968;BME280;58629;48.808;8.820;2023-03-01T03:44:45;97695.91;;;-3.23;93.03
70968;BME280;58629;48.808;8.820;2023-03-01T03:47:11;97696.19;;;-3.25;91.97
70968;BME280;58629;48.808;8.820;2023-03-01T03:49:36;97701.53;;;-3.21;93.29
70968;BME280;58629;48.808;8.820;2023-03-01T03:52:01;97693.16;;;-3.10;93.96
70968;BME280;58629;48.808;8.820;2023-03-01T03:54:26;97695.13;;;-3.07;92.71
70968;BME280;58629;48.808;8.820;2023-03-01T03:56:52;97701.88;;;-2.97;93.96
70968;BME280;58629;48.808;8.820;2023-03-01T03:59:17;97698.50;;;-2.89;93.05
70968;BME280;58629;48.808;8.820;2023-03-01T04:01:42;97696.53;;;-2.92;92.76
70968;BME280;58629;48.808;8.820;2023-03-01T04:04:09;97692.69;;;-2.95;92.63
70968;BME280;58629;48.808;8.820;2023-03-01T04:06:34;97694.06;;;-2.89;92.63
70968;BME280;58629;48.808;8.820;2023-03-01T04:09:00;97688.31;;;-2.86;92.30
70968;BME280;58629;48.808;8.820;2023-03-01T04:11:27;97682.66;;;-2.96;91.05
70968;BME280;58629;48.808;8.820;2023-03-01T04:13:54;97681.28;;;-2.94;92.19
70968;BME280;58629;48.808;8.820;2023-03-01T04:16:20;97675.34;;;-2.86;91.60
70968;BME280;58629;48.808;8.820;2023-03-01T04:18:45;97672.44;;;-2.84;91.06
70968;BME280;58629;48.808;8.820;2023-03-01T04:21:11;97673.66;;;-2.82;92.09
70968;BME280;58629;48.808;8.820;2023-03-01T04:23:37;97672.59;;;-2.81;91.14
70968;BME280;58629;48.808;8.820;2023-03-01T04:26:03;97672.44;;;-2.76;90.88
70968;BME280;58629;48.808;8.820;2023-03-01T04:28:31;97669.09;;;-2.76;90.15
70968;BME280;58629;48.808;8.820;2023-03-01T04:31:04;97666.03;;;-2.70;91.11
70968;BME280;58629;48.808;8.820;2023-03-01T04:33:48;97667.53;;;-2.60;91.73
70968;BME280;58629;48.808;8.820;2023-03-01T04:36:15;97666.47;;;-2.59;91.36
70968;BME280;58629;48.808;8.820;2023-03-01T04:38:42;97656.41;;;-2.52;91.80
70968;BME280;58629;48.808;8.820;2023-03-01T04:41:10;97665.38;;;-2.49;91.59
70968;BME280;58629;48.808;8.820;2023-03-01T04:43:36;97663.53;;;-2.49;91.66
70968;BME280;58629;48.808;8.820;2023-03-01T04:46:07;97667.38;;;-2.46;89.72
70968;BME280;58629;48.808;8.820;2023-03-01T04:48:35;97673.13;;;-2.41;90.40
70968;BME280;58629;48.808;8.820;2023-03-01T04:51:01;97665.03;;;-2.31;90.75
70968;BME280;58629;48.808;8.820;2023-03-01T04:53:28;97669.31;;;-2.26;90.67
70968;BME280;58629;48.808;8.820;2023-03-01T04:55:54;97673.59;;;-2.30;90.31
70968;BME280;58629;48.808;8.820;2023-03-01T04:58:21;97672.34;;;-2.24;92.55
70968;BME280;58629;48.808;8.820;2023-03-01T05:00:46;97670.50;;;-2.24;90.85
70968;BME280;58629;48.808;8.820;2023-03-01T05:03:12;97668.97;;;-2.16;91.40
70968;BME280;58629;48.808;8.820;2023-03-01T05:05:38;97666.19;;;-2.11;91.47
70968;BME280;58629;48.808;8.820;2023-03-01T05:08:05;97667.72;;;-2.10;91.53
70968;BME280;58629;48.808;8.820;2023-03-01T05:10:35;97666.50;;;-2.04;91.20
70968;BME280;58629;48.808;8.820;2023-03-01T05:13:01;97665.72;;;-2.05;90.98
70968;BME280;58629;48.808;8.820;2023-03-01T05:15:28;97664.78;;;-2.00;90.72
70968;BME280;58629;48.808;8.820;2023-03-01T05:17:55;97660.97;;;-2.03;89.38
70968;BME280;58629;48.808;8.820;2023-03-01T05:20:21;97661.56;;;-1.97;90.74
70968;BME280;58629;48.808;8.820;2023-03-01T05:22:51;97663.22;;;-1.93;90.50
70968;BME280;58629;48.808;8.820;2023-03-01T05:25:16;97656.19;;;-1.92;91.92
70968;BME280;58629;48.808;8.820;2023-03-01T05:27:42;97664.59;;;-1.95;91.44
70968;BME280;58629;48.808;8.820;2023-03-01T05:30:08;97661.09;;;-1.91;91.98
70968;BME280;58629;48.808;8.820;2023-03-01T05:32:45;97656.34;;;-1.89;89.59
70968;BME280;58629;48.808;8.820;2023-03-01T05:35:12;97662.28;;;-1.88;87.97
70968;BME280;58629;48.808;8.820;2023-03-01T05:37:45;97666.41;;;-1.87;88.10
70968;BME280;58629;48.808;8.820;2023-03-01T05:40:12;97661.22;;;-1.87;87.84
70968;BME280;58629;48.808;8.820;2023-03-01T05:42:45;97665.94;;;-1.81;88.91
70968;BME280;58629;48.808;8.820;2023-03-01T05:45:11;97663.00;;;-1.79;89.00
70968;BME280;58629;48.808;8.820;2023-03-01T05:47:41;97654.44;;;-1.71;89.58
70968;BME280;58629;48.808;8.820;2023-03-01T05:50:11;97667.09;;;-1.69;88.27
70968;BME280;58629;48.808;8.820;2023-03-01T05:52:36;97666.53;;;-1.54;91.01
70968;BME280;58629;48.808;8.820;2023-03-01T05:55:01;97665.56;;;-1.00;97.08
70968;BME280;58629;48.808;8.820;2023-03-01T05:57:28;97667.13;;;-0.22;100.00
70968;BME280;58629;48.808;8.820;2023-03-01T05:59:53;97667.63;;;0.41;100.00
70968;BME280;58629;48.808;8.820;2023-03-01T06:02:19;97656.44;;;1.04;100.00
70968;BME280;58629;48.808;8.820;2023-03-01T06:04:45;97659.19;;;1.51;97.56
70968;BME280;58629;48.808;8.820;2023-03-01T06:07:10;97652.06;;;1.79;90.86
70968;BME280;58629;48.808;8.820;2023-03-01T06:09:35;97653.94;;;2.10;89.42
70968;BME280;58629;48.808;8.820;2023-03-01T06:12:00;97646.00;;;2.37;86.30
70968;BME280;58629;48.808;8.820;2023-03-01T06:14:26;97646.28;;;2.67;84.52
70968;BME280;58629;48.808;8.820;2023-03-01T06:16:51;97646.66;;;2.85;81.24
70968;BME280;58629;48.808;8.820;2023-03-01T06:19:16;97657.47;;;3.02;81.18
70968;BME280;58629;48.808;8.820;2023-03-01T06:21:41;97646.94;;;3.18;80.00
70968;BME280;58629;48.808;8.820;2023-03-01T06:24:07;97658.50;;;3.36;79.29
70968;BME280;58629;48.808;8.820;2023-03-01T06:26:33;97657.13;;;3.42;77.64
70968;BME280;58629;48.808;8.820;2023-03-01T06:28:58;97645.63;;;2.54;67.79
70968;BME280;58629;48.808;8.820;2023-03-01T06:31:23;97658.50;;;1.82;69.35
70968;BME280;58629;48.808;8.820;2023-03-01T06:33:49;97657.06;;;1.13;71.68
70968;BME280;58629;48.808;8.820;2023-03-01T06:36:14;97662.00;;;0.39;72.85
70968;BME280;58629;48.808;8.820;2023-03-01T06:38:39;97665.88;;;-0.04;75.79
70968;BME280;58629;48.808;8.820;2023-03-01T06:41:05;97665.06;;;-0.40;76.80
70968;BME280;58629;48.808;8.820;2023-03-01T06:43:31;97660.22;;;-0.62;77.78
70968;BME280;58629;48.808;8.820;2023-03-01T06:45:57;97653.25;;;-0.91;79.37
70968;BME280;58629;48.808;8.820;2023-03-01T06:48:22;97648.63;;;-1.27;81.55
70968;BME280;58629;48.808;8.820;2023-03-01T06:50:48;97657.09;;;-1.30;83.24
70968;BME280;58629;48.808;8.820;2023-03-01T06:53:13;97649.84;;;-1.45;82.99
70968;BME280;58629;48.808;8.820;2023-03-01T06:55:38;97658.47;;;-1.53;83.45
70968;BME280;58629;48.808;8.820;2023-03-01T06:58:03;97650.25;;;-1.63;85.14
70968;BME280;58629;48.808;8.820;2023-03-01T07:00:30;97648.16;;;-1.70;85.10
70968;BME280;58629;48.808;8.820;2023-03-01T07:02:58;97649.19;;;-1.62;85.12
70968;BME280;58629;48.808;8.820;2023-03-01T07:05:24;97640.09;;;-1.77;85.85
70968;BME280;58629;48.808;8.820;2023-03-01T07:07:49;97640.59;;;-1.84;87.02
70968;BME280;58629;48.808;8.820;2023-03-01T07:10:14;97642.63;;;-1.98;86.71
70968;BME280;58629;48.808;8.820;2023-03-01T07:12:39;97639.78;;;-2.05;87.19
70968;BME280;58629;48.808;8.820;2023-03-01T07:15:08;97636.41;;;-2.05;87.55
70968;BME280;58629;48.808;8.820;2023-03-01T07:17:34;97634.63;;;-2.22;87.67
70968;BME280;58629;48.808;8.820;2023-03-01T07:19:59;97631.75;;;-2.29;88.00
70968;BME280;58629;48.808;8.820;2023-03-01T07:22:25;97633.13;;;-2.23;88.45
70968;BME280;58629;48.808;8.820;2023-03-01T07:24:50;97639.47;;;-2.12;88.00
70968;BME280;58629;48.808;8.820;2023-03-01T07:27:15;97635.63;;;-1.97;88.57
70968;BME280;58629;48.808;8.820;2023-03-01T07:29:40;97632.69;;;-1.96;87.00
70968;BME280;58629;48.808;8.820;2023-03-01T07:32:06;97632.63;;;-1.79;87.06
70968;BME280;58629;48.808;8.820;2023-03-01T07:34:31;97630.41;;;-1.68;86.09
70968;BME280;58629;48.808;8.820;2023-03-01T07:36:57;97631.16;;;-1.59;85.92
70968;BME280;58629;48.808;8.820;2023-03-01T07:39:22;97624.81;;;-1.49;85.64
70968;BME280;58629;48.808;8.820;2023-03-01T07:41:51;97629.06;;;-1.45;85.10
70968;BME280;58629;48.808;8.820;2023-03-01T07:44:16;97630.66;;;-1.32;85.37
70968;BME280;58629;48.808;8.820;2023-03-01T07:46:43;97622.38;;;-1.25;85.57
70968;BME280;58629;48.808;8.820;2023-03-01T07:49:08;97624.75;;;-1.20;83.84
70968;BME280;58629;48.808;8.820;2023-03-01T07:51:33;97621.53;;;-1.17;83.12
70968;BME280;58629;48.808;8.820;2023-03-01T07:53:59;97617.78;;;-1.08;83.91
70968;BME280;58629;48.808;8.820;2023-03-01T07:56:24;97628.75;;;-1.02;82.48
70968;BME280;58629;48.808;8.820;2023-03-01T07:58:49;97620.94;;;-1.02;83.18
70968;BME280;58629;48.808;8.820;2023-03-01T08:01:16;97619.63;;;-1.08;82.78
70968;BME280;58629;48.808;8.820;2023-03-01T08:03:42;97612.19;;;-0.98;82.89
70968;BME280;58629;48.808;8.820;2023-03-01T08:06:10;97600.66;;;-0.88;82.62
70968;BME280;58629;48.808;8.820;2023-03-01T08:08:36;97603.81;;;-0.82;82.59
70968;BME280;58629;48.808;8.820;2023-03-01T08:11:03;97606.00;;;-0.72;82.26
70968;BME280;58629;48.808;8.820;2023-03-01T08:13:29;97600.28;;;-0.66;81.76
70968;BME280;58629;48.808;8.820;2023-03-01T08:15:54;97608.53;;;-0.64;81.74
70968;BME280;58629;48.808;8.820;2023-03-01T08:18:20;97607.69;;;-0.56;81.89
70968;BME280;58629;48.808;8.820;2023-03-01T08:20:46;97615.91;;;-0.54;81.28
70968;BME280;58629;48.808;8.820;2023-03-01T08:23:11;97614.94;;;-0.49;81.74
70968;BME280;58629;48.808;8.820;2023-03-01T08:25:37;97616.03;;;-0.50;80.22
70968;BME280;58629;48.808;8.820;2023-03-01T08:28:03;97611.47;;;-0.53;80.24
70968;BME280;58629;48.808;8.820;2023-03-01T08:30:28;97610.84;;;-0.50;80.65
70968;BME280;58629;48.808;8.820;2023-03-01T08:32:54;97603.94;;;-0.34;81.01
70968;BME280;58629;48.808;8.820;2023-03-01T08:35:20;97608.03;;;-0.21;80.35
70968;BME280;58629;48.808;8.820;2023-03-01T08:37:46;97613.06;;;-0.16;80.04
70968;BME280;58629;48.808;8.820;2023-03-01T08:40:12;97604.81;;;-0.18;79.65
70968;BME280;58629;48.808;8.820;2023-03-01T08:42:39;97609.47;;;-0.12;79.88
70968;BME280;58629;48.808;8.820;2023-03-01T08:45:05;97604.59;;;-0.13;78.11
70968;BME280;58629;48.808;8.820;2023-03-01T08:47:30;97598.19;;;-0.16;78.50
70968;BME280;58629;48.808;8.820;2023-03-01T08:49:55;97588.44;;;0.06;79.17
70968;BME280;58629;48.808;8.820;2023-03-01T08:52:21;97589.84;;;0.15;79.02
70968;BME280;58629;48.808;8.820;2023-03-01T08:54:49;97589.06;;;0.15;77.06
70968;BME280;58629;48.808;8.820;2023-03-01T08:57:15;97581.59;;;0.13;77.47
70968;BME280;58629;48.808;8.820;2023-03-01T08:59:40;97583.22;;;0.18;77.95
70968;BME280;58629;48.808;8.820;2023-03-01T09:02:14;97583.00;;;0.23;78.14
70968;BME280;58629;48.808;8.820;2023-03-01T09:04:40;97585.81;;;0.30;77.70
70968;BME280;58629;48.808;8.820;2023-03-01T09:07:06;97582.75;;;0.40;77.52
70968;BME280;58629;48.808;8.820;2023-03-01T09:09:31;97576.56;;;0.44;77.09
70968;BME280;58629;48.808;8.820;2023-03-01T09:11:56;97580.53;;;0.54;77.00
70968;BME280;58629;48.808;8.820;2023-03-01T09:14:22;97566.97;;;0.60;76.31
70968;BME280;58629;48.808;8.820;2023-03-01T09:16:47;97570.34;;;0.61;75.99
70968;BME280;58629;48.808;8.820;2023-03-01T09:19:13;97564.31;;;0.72;75.95
70968;BME280;58629;48.808;8.820;2023-03-01T09:21:38;97559.28;;;0.79;75.03
70968;BME280;58629;48.808;8.820;2023-03-01T09:24:04;97556.75;;;0.95;75.28
70968;BME280;58629;48.808;8.820;2023-03-01T09:26:29;97563.03;;;1.22;76.10
70968;BME280;58629;48.808;8.820;2023-03-01T09:28:55;97555.88;;;1.34;74.21
70968;BME280;58629;48.808;8.820;2023-03-01T09:31:22;97550.25;;;1.32;72.72
70968;BME280;58629;48.808;8.820;2023-03-01T09:33:50;97546.38;;;1.26;72.28
70968;BME280;58629;48.808;8.820;2023-03-01T09:36:18;97550.41;;;1.39;72.71
70968;BME280;58629;48.808;8.820;2023-03-01T09:38:44;97540.75;;;1.40;72.45
70968;BME280;58629;48.808;8.820;2023-03-01T09:44:40;97540.50;;;1.76;71.70
70968;BME280;58629;48.808;8.820;2023-03-01T09:47:19;97541.22;;;1.92;71.12
70968;BME280;58629;48.808;8.820;2023-03-01T09:52:30;97532.91;;;2.21;70.77
70968;BME280;58629;48.808;8.820;2023-03-01T09:54:58;97535.78;;;2.16;68.08
70968;BME280;58629;48.808;8.820;2023-03-01T09:57:33;97541.22;;;2.27;68.86
70968;BME280;58629;48.808;8.820;2023-03-01T10:00:16;97539.00;;;2.44;68.79
70968;BME280;58629;48.808;8.820;2023-03-01T10:02:57;97535.75;;;2.51;67.64
70968;BME280;58629;48.808;8.820;2023-03-01T10:10:38;97529.91;;;2.77;66.67
70968;BME280;58629;48.808;8.820;2023-03-01T10:13:16;97520.06;;;2.89;65.97
70968;BME280;58629;48.808;8.820;2023-03-01T10:15:49;97524.88;;;3.06;66.47
70968;BME280;58629;48.808;8.820;2023-03-01T10:18:23;97528.53;;;3.24;65.21
70968;BME280;58629;48.808;8.820;2023-03-01T10:20:53;97508.25;;;3.18;64.24
70968;BME280;58629;48.808;8.820;2023-03-01T10:23:23;97510.16;;;3.43;65.63
70968;BME280;58629;48.808;8.820;2023-03-01T10:26:43;97514.69;;;3.69;63.42
70968;BME280;58629;48.808;8.820;2023-03-01T10:29:12;97503.97;;;3.55;62.79
70968;BME280;58629;48.808;8.820;2023-03-01T10:31:44;97513.41;;;3.60;62.45
70968;BME280;58629;48.808;8.820;2023-03-01T10:34:17;97507.75;;;3.80;63.38
70968;BME280;58629;48.808;8.820;2023-03-01T10:36:47;97504.91;;;3.92;62.89
70968;BME280;58629;48.808;8.820;2023-03-01T10:39:16;97497.19;;;3.77;62.45
70968;BME280;58629;48.808;8.820;2023-03-01T10:41:55;97496.03;;;4.00;62.89
70968;BME280;58629;48.808;8.820;2023-03-01T10:44:46;97493.28;;;4.16;61.97
70968;BME280;58629;48.808;8.820;2023-03-01T10:47:19;97491.28;;;4.35;61.58
70968;BME280;58629;48.808;8.820;2023-03-01T10:49:54;97495.53;;;4.47;59.84
70968;BME280;58629;48.808;8.820;2023-03-01T10:52:23;97495.09;;;4.12;60.14
70968;BME280;58629;48.808;8.820;2023-03-01T10:55:04;97494.44;;;4.22;61.40
70968;BME280;58629;48.808;8.820;2023-03-01T10:57:48;97480.44;;;4.07;61.00
70968;BME280;58629;48.808;8.820;2023-03-01T11:00:21;97485.13;;;4.24;61.69
70968;BME280;58629;48.808;8.820;2023-03-01T11:03:11;97481.88;;;4.05;60.74
70968;BME280;58629;48.808;8.820;2023-03-01T11:05:50;97483.94;;;3.92;61.22
70968;BME280;58629;48.808;8.820;2023-03-01T11:08:29;97471.66;;;3.96;61.48
70968;BME280;58629;48.808;8.820;2023-03-01T11:11:05;97468.09;;;3.82;60.47
70968;BME280;58629;48.808;8.820;2023-03-01T11:13:30;97458.06;;;3.87;61.20
70968;BME280;58629;48.808;8.820;2023-03-01T11:16:01;97457.41;;;3.94;61.07
70968;BME280;58629;48.808;8.820;2023-03-01T11:18:29;97450.44;;;4.05;61.83
70968;BME280;58629;48.808;8.820;2023-03-01T11:20:56;97450.94;;;4.14;60.00
70968;BME280;58629;48.808;8.820;2023-03-01T11:23:23;97440.78;;;4.12;60.00
70968;BME280;58629;48.808;8.820;2023-03-01T11:25:55;97446.75;;;4.39;61.63
70968;BME280;58629;48.808;8.820;2023-03-01T11:28:22;97440.56;;;4.24;59.86
70968;BME280;58629;48.808;8.820;2023-03-01T11:31:00;97434.97;;;4.26;60.87
70968;BME280;58629;48.808;8.820;2023-03-01T11:33:53;97445.28;;;4.42;59.87
70968;BME280;58629;48.808;8.820;2023-03-01T11:36:35;97442.00;;;4.52;60.15
70968;BME280;58629;48.808;8.820;2023-03-01T11:42:15;97434.53;;;4.54;58.92
70968;BME280;58629;48.808;8.820;2023-03-01T11:44:43;97428.78;;;4.78;59.51
70968;BME280;58629;48.808;8.820;2023-03-01T11:50:25;97416.16;;;4.90;58.41
70968;BME280;58629;48.808;8.820;2023-03-01T11:56:05;97409.63;;;5.17;57.68
70968;BME280;58629;48.808;8.820;2023-03-01T11:58:49;97404.38;;;5.17;56.82
70968;BME280;58629;48.808;8.820;2023-03-01T12:01:37;97410.22;;;5.44;56.82
70968;BME280;58629;48.808;8.820;2023-03-01T12:04:30;97397.88;;;5.52;55.61
70968;BME280;58629;48.808;8.820;2023-03-01T12:15:42;97376.00;;;5.95;55.24
70968;BME280;58629;48.808;8.820;2023-03-01T12:18:35;97368.91;;;6.09;55.57
70968;BME280;58629;48.808;8.820;2023-03-01T12:24:13;97355.91;;;6.55;54.41
70968;BME280;58629;48.808;8.820;2023-03-01T12:27:15;97343.13;;;6.57;54.53
70968;BME280;58629;48.808;8.820;2023-03-01T12:35:34;97333.34;;;6.61;52.29
70968;BME280;58629;48.808;8.820;2023-03-01T12:41:01;97330.72;;;6.72;52.78
70968;BME280;58629;48.808;8.820;2023-03-01T12:49:14;97318.31;;;6.86;51.86
70968;BME280;58629;48.808;8.820;2023-03-01T12:52:02;97315.31;;;6.84;52.35
70968;BME280;58629;48.808;8.820;2023-03-01T12:54:36;97323.56;;;7.04;52.27
70968;BME280;58629;48.808;8.820;2023-03-01T12:57:40;97313.00;;;7.11;52.17
70968;BME280;58629;48.808;8.820;2023-03-01T13:00:37;97301.00;;;7.10;51.80
70968;BME280;58629;48.808;8.820;2023-03-01T13:03:38;97296.13;;;7.05;51.21
70968;BME280;58629;48.808;8.820;2023-03-01T13:06:24;97308.88;;;7.17;53.19
70968;BME280;58629;48.808;8.820;2023-03-01T13:11:25;97284.41;;;7.13;51.16
70968;BME280;58629;48.808;8.820;2023-03-01T13:16:45;97286.22;;;7.51;51.05
70968;BME280;58629;48.808;8.820;2023-03-01T13:19:21;97284.75;;;7.40;52.05
70968;BME280;58629;48.808;8.820;2023-03-01T13:21:49;97277.25;;;7.24;53.00
70968;BME280;58629;48.808;8.820;2023-03-01T13:24:28;97281.00;;;7.23;51.74
70968;BME280;58629;48.808;8.820;2023-03-01T13:27:10;97278.78;;;7.22;51.34
70968;BME280;58629;48.808;8.820;2023-03-01T13:29:53;97284.41;;;7.24;51.32
70968;BME280;58629;48.808;8.820;2023-03-01T13:34:48;97274.19;;;7.50;51.12
70968;BME280;58629;48.808;8.820;2023-03-01T13:37:25;97276.84;;;7.40;50.90
70968;BME280;58629;48.808;8.820;2023-03-01T13:39:54;97271.97;;;7.31;51.43
70968;BME280;58629;48.808;8.820;2023-03-01T13:42:40;97275.00;;;7.26;51.25
70968;BME280;58629;48.808;8.820;2023-03-01T13:45:20;97286.28;;;7.23;50.97
70968;BME280;58629;48.808;8.820;2023-03-01T13:47:48;97280.66;;;7.25;50.79
70968;BME280;58629;48.808;8.820;2023-03-01T13:50:25;97276.53;;;7.17;51.72
70968;BME280;58629;48.808;8.820;2023-03-01T13:53:03;97278.00;;;7.21;51.27
70968;BME280;58629;48.808;8.820;2023-03-01T13:55:44;97279.53;;;7.15;51.33
70968;BME280;58629;48.808;8.820;2023-03-01T13:58:28;97272.41;;;7.05;51.60
70968;BME280;58629;48.808;8.820;2023-03-01T14:00:56;97276.53;;;7.10;52.60
70968;BME280;58629;48.808;8.820;2023-03-01T14:03:21;97279.91;;;7.17;51.30
70968;BME280;58629;48.808;8.820;2023-03-01T14:06:09;97273.50;;;7.11;51.66
70968;BME280;58629;48.808;8.820;2023-03-01T14:08:37;97277.66;;;7.01;52.50
70968;BME280;58629;48.808;8.820;2023-03-01T14:11:26;97281.81;;;6.95;52.90
70968;BME280;58629;48.808;8.820;2023-03-01T14:16:39;97267.88;;;7.16;52.94
70968;BME280;58629;48.808;8.820;2023-03-01T14:19:14;97262.59;;;7.20;52.76
70968;BME280;58629;48.808;8.820;2023-03-01T14:21:45;97258.50;;;6.97;52.93
70968;BME280;58629;48.808;8.820;2023-03-01T14:24:19;97268.28;;;7.04;52.82
70968;BME280;58629;48.808;8.820;2023-03-01T14:26:45;97274.28;;;6.97;52.41